sensor_id;sensor_type;location;lat;lon;timestamp;P1;durP1;ratioP1;P2;durP2;ratioP2
15061;SDS011;7630;50.306;8.566;2023-03-03T00:03:46;28.10;;;25.10;;
15061;SDS011;7630;50.306;8.566;2023-03-03T00:07:48;24.17;;;21.63;;
15061;SDS011;7630;50.306;8.566;2023-03-03T00:11:51;28.50;;;23.63;;
15061;SDS011;7630;50.306;8.566;2023-03-03T00:15:54;29.77;;;23.23;;
15061;SDS011;7630;50.306;8.566;2023-03-03T00:20:37;35.43;;;23.93;;
15061;SDS011;7630;50.306;8.566;2023-03-03T00:24:34;29.57;;;24.83;;
15061;SDS011;7630;50.306;8.566;2023-03-03T00:28:44;31.43;;;26.07;;
15061;SDS011;7630;50.306;8.566;2023-03-03T00:32:47;31.50;;;27.37;;
15061;SDS011;7630;50.306;8.566;2023-03-03T00:36:53;35.97;;;29.97;;
15061;SDS011;7630;50.306;8.566;2023-03-03T00:40:55;32.17;;;25.87;;
15061;SDS011;7630;50.306;8.566;2023-03-03T00:44:57;33.30;;;27.77;;
15061;SDS011;7630;50.306;8.566;2023-03-03T00:48:58;33.67;;;28.43;;
15061;SDS011;7630;50.306;8.566;2023-03-03T00:53:01;32.93;;;29.00;;
15061;SDS011;7630;50.306;8.566;2023-03-03T00:57:06;35.47;;;28.13;;
15061;SDS011;7630;50.306;8.566;2023-03-03T01:01:08;38.97;;;31.40;;
15061;SDS011;7630;50.306;8.566;2023-03-03T01:05:09;37.67;;;29.17;;
15061;SDS011;7630;50.306;8.566;2023-03-03T01:09:13;36.50;;;30.10;;
15061;SDS011;7630;50.306;8.566;2023-03-03T01:13:15;37.50;;;28.83;;
15061;SDS011;7630;50.306;8.566;2023-03-03T01:17:17;43.27;;;29.67;;
15061;SDS011;7630;50.306;8.566;2023-03-03T01:21:18;37.53;;;31.53;;
15061;SDS011;7630;50.306;8.566;2023-03-03T01:25:19;34.37;;;29.43;;
15061;SDS011;7630;50.306;8.566;2023-03-03T01:29:20;37.23;;;30.57;;
15061;SDS011;7630;50.306;8.566;2023-03-03T01:33:21;36.00;;;30.80;;
15061;SDS011;7630;50.306;8.566;2023-03-03T01:37:22;44.07;;;34.83;;
15061;SDS011;7630;50.306;8.566;2023-03-03T01:41:26;38.73;;;31.13;;
15061;SDS011;7630;50.306;8.566;2023-03-03T01:45:29;41.07;;;33.60;;
15061;SDS011;7630;50.306;8.566;2023-03-03T01:53:50;44.10;;;33.93;;
15061;SDS011;7630;50.306;8.566;2023-03-03T01:58:04;38.40;;;32.93;;
15061;SDS011;7630;50.306;8.566;2023-03-03T02:02:07;41.77;;;34.67;;
15061;SDS011;7630;50.306;8.566;2023-03-03T02:06:11;39.93;;;32.27;;
15061;SDS011;7630;50.306;8.566;2023-03-03T02:10:15;44.97;;;34.13;;
15061;SDS011;7630;50.306;8.566;2023-03-03T02:14:18;45.60;;;34.67;;
15061;SDS011;7630;50.306;8.566;2023-03-03T02:18:19;43.87;;;34.17;;
15061;SDS011;7630;50.306;8.566;2023-03-03T02:26:31;49.57;;;39.03;;
15061;SDS011;7630;50.306;8.566;2023-03-03T02:30:36;48.57;;;36.63;;
15061;SDS011;7630;50.306;8.566;2023-03-03T02:34:45;58.50;;;40.20;;
15061;SDS011;7630;50.306;8.566;2023-03-03T02:43:12;52.43;;;38.10;;
15061;SDS011;7630;50.306;8.566;2023-03-03T02:47:16;46.70;;;36.87;;
15061;SDS011;7630;50.306;8.566;2023-03-03T02:51:17;58.87;;;41.73;;
15061;SDS011;7630;50.306;8.566;2023-03-03T02:55:18;54.67;;;42.73;;
15061;SDS011;7630;50.306;8.566;2023-03-03T02:59:19;60.70;;;42.37;;
15061;SDS011;7630;50.306;8.566;2023-03-03T03:03:21;59.73;;;45.83;;
15061;SDS011;7630;50.306;8.566;2023-03-03T03:07:22;63.07;;;45.73;;
15061;SDS011;7630;50.306;8.566;2023-03-03T03:11:24;62.80;;;45.87;;
15061;SDS011;7630;50.306;8.566;2023-03-03T03:15:25;66.33;;;47.17;;
15061;SDS011;7630;50.306;8.566;2023-03-03T03:19:26;67.40;;;48.33;;
15061;SDS011;7630;50.306;8.566;2023-03-03T03:23:28;73.23;;;49.27;;
15061;SDS011;7630;50.306;8.566;2023-03-03T03:27:29;73.70;;;50.17;;
15061;SDS011;7630;50.306;8.566;2023-03-03T03:31:30;74.80;;;48.40;;
15061;SDS011;7630;50.306;8.566;2023-03-03T03:35:32;68.93;;;47.10;;
15061;SDS011;7630;50.306;8.566;2023-03-03T03:39:34;64.17;;;47.07;;
15061;SDS011;7630;50.306;8.566;2023-03-03T03:43:36;69.40;;;50.67;;
15061;SDS011;7630;50.306;8.566;2023-03-03T03:47:37;79.93;;;50.37;;
15061;SDS011;7630;50.306;8.566;2023-03-03T03:51:38;76.53;;;50.70;;
15061;SDS011;7630;50.306;8.566;2023-03-03T03:55:40;72.10;;;51.70;;
15061;SDS011;7630;50.306;8.566;2023-03-03T03:59:42;81.20;;;56.07;;
15061;SDS011;7630;50.306;8.566;2023-03-03T04:03:43;79.10;;;54.40;;
15061;SDS011;7630;50.306;8.566;2023-03-03T04:07:44;81.33;;;53.57;;
15061;SDS011;7630;50.306;8.566;2023-03-03T04:11:45;75.03;;;51.57;;
15061;SDS011;7630;50.306;8.566;2023-03-03T04:15:46;78.37;;;53.73;;
15061;SDS011;7630;50.306;8.566;2023-03-03T04:19:47;74.50;;;53.27;;
15061;SDS011;7630;50.306;8.566;2023-03-03T04:23:49;78.63;;;55.07;;
15061;SDS011;7630;50.306;8.566;2023-03-03T04:27:50;84.70;;;55.83;;
15061;SDS011;7630;50.306;8.566;2023-03-03T04:31:52;90.77;;;58.20;;
15061;SDS011;7630;50.306;8.566;2023-03-03T04:35:53;82.23;;;58.37;;
15061;SDS011;7630;50.306;8.566;2023-03-03T04:39:54;93.37;;;56.47;;
15061;SDS011;7630;50.306;8.566;2023-03-03T04:43:55;75.87;;;51.67;;
15061;SDS011;7630;50.306;8.566;2023-03-03T04:47:56;76.30;;;52.87;;
15061;SDS011;7630;50.306;8.566;2023-03-03T04:51:58;72.70;;;51.13;;
15061;SDS011;7630;50.306;8.566;2023-03-03T04:55:59;83.63;;;51.33;;
15061;SDS011;7630;50.306;8.566;2023-03-03T05:00:00;78.37;;;52.00;;
15061;SDS011;7630;50.306;8.566;2023-03-03T05:04:02;69.90;;;46.90;;
15061;SDS011;7630;50.306;8.566;2023-03-03T05:08:03;72.70;;;50.97;;
15061;SDS011;7630;50.306;8.566;2023-03-03T05:12:04;71.20;;;49.90;;
15061;SDS011;7630;50.306;8.566;2023-03-03T05:16:06;71.33;;;50.67;;
15061;SDS011;7630;50.306;8.566;2023-03-03T05:20:08;73.17;;;50.93;;
15061;SDS011;7630;50.306;8.566;2023-03-03T05:24:10;72.17;;;47.70;;
15061;SDS011;7630;50.306;8.566;2023-03-03T05:28:13;68.53;;;48.43;;
15061;SDS011;7630;50.306;8.566;2023-03-03T05:32:14;69.97;;;47.93;;
15061;SDS011;7630;50.306;8.566;2023-03-03T05:36:15;64.90;;;45.67;;
15061;SDS011;7630;50.306;8.566;2023-03-03T05:40:17;75.10;;;49.67;;
15061;SDS011;7630;50.306;8.566;2023-03-03T05:44:18;81.97;;;53.43;;
15061;SDS011;7630;50.306;8.566;2023-03-03T05:48:21;79.75;;;59.42;;
15061;SDS011;7630;50.306;8.566;2023-03-03T05:52:22;73.47;;;49.97;;
15061;SDS011;7630;50.306;8.566;2023-03-03T05:56:24;70.90;;;50.10;;
15061;SDS011;7630;50.306;8.566;2023-03-03T06:00:25;75.67;;;51.30;;
15061;SDS011;7630;50.306;8.566;2023-03-03T06:04:26;74.17;;;51.10;;
15061;SDS011;7630;50.306;8.566;2023-03-03T06:08:28;80.20;;;49.50;;
15061;SDS011;7630;50.306;8.566;2023-03-03T06:12:30;75.83;;;51.30;;
15061;SDS011;7630;50.306;8.566;2023-03-03T06:16:31;75.70;;;50.67;;
15061;SDS011;7630;50.306;8.566;2023-03-03T06:20:32;80.63;;;52.00;;
15061;SDS011;7630;50.306;8.566;2023-03-03T06:24:34;86.57;;;52.67;;
15061;SDS011;7630;50.306;8.566;2023-03-03T06:28:36;85.63;;;50.50;;
15061;SDS011;7630;50.306;8.566;2023-03-03T06:32:37;73.80;;;50.30;;
15061;SDS011;7630;50.306;8.566;2023-03-03T06:36:38;80.97;;;49.70;;
15061;SDS011;7630;50.306;8.566;2023-03-03T06:40:39;82.83;;;51.10;;
15061;SDS011;7630;50.306;8.566;2023-03-03T06:44:40;84.57;;;47.87;;
15061;SDS011;7630;50.306;8.566;2023-03-03T06:48:41;84.50;;;53.70;;
15061;SDS011;7630;50.306;8.566;2023-03-03T06:52:43;80.93;;;49.33;;
15061;SDS011;7630;50.306;8.566;2023-03-03T06:56:44;83.60;;;50.93;;
15061;SDS011;7630;50.306;8.566;2023-03-03T07:00:52;81.63;;;48.93;;
15061;SDS011;7630;50.306;8.566;2023-03-03T07:04:57;78.07;;;45.90;;
15061;SDS011;7630;50.306;8.566;2023-03-03T07:08:58;83.57;;;48.77;;
15061;SDS011;7630;50.306;8.566;2023-03-03T07:13:07;73.73;;;42.97;;
15061;SDS011;7630;50.306;8.566;2023-03-03T07:17:10;63.67;;;39.13;;
15061;SDS011;7630;50.306;8.566;2023-03-03T07:25:35;82.90;;;47.30;;
15061;SDS011;7630;50.306;8.566;2023-03-03T07:29:37;75.17;;;45.90;;
15061;SDS011;7630;50.306;8.566;2023-03-03T07:33:46;75.43;;;49.50;;
15061;SDS011;7630;50.306;8.566;2023-03-03T07:37:45;71.93;;;41.13;;
15061;SDS011;7630;50.306;8.566;2023-03-03T07:41:46;74.83;;;45.87;;
15061;SDS011;7630;50.306;8.566;2023-03-03T07:45:47;70.13;;;42.33;;
15061;SDS011;7630;50.306;8.566;2023-03-03T07:49:49;64.90;;;42.23;;
15061;SDS011;7630;50.306;8.566;2023-03-03T07:53:51;68.20;;;42.03;;
15061;SDS011;7630;50.306;8.566;2023-03-03T07:57:54;69.07;;;43.10;;
15061;SDS011;7630;50.306;8.566;2023-03-03T08:01:58;75.03;;;44.67;;
15061;SDS011;7630;50.306;8.566;2023-03-03T08:06:01;66.57;;;40.40;;
15061;SDS011;7630;50.306;8.566;2023-03-03T08:10:30;67.80;;;43.03;;
15061;SDS011;7630;50.306;8.566;2023-03-03T08:14:30;63.20;;;38.90;;
15061;SDS011;7630;50.306;8.566;2023-03-03T08:22:41;49.17;;;31.47;;
15061;SDS011;7630;50.306;8.566;2023-03-03T08:26:43;53.73;;;35.43;;
15061;SDS011;7630;50.306;8.566;2023-03-03T08:30:44;53.93;;;35.27;;
15061;SDS011;7630;50.306;8.566;2023-03-03T08:34:47;58.80;;;36.93;;
15061;SDS011;7630;50.306;8.566;2023-03-03T08:38:48;52.83;;;34.00;;
15061;SDS011;7630;50.306;8.566;2023-03-03T08:42:49;57.10;;;37.43;;
15061;SDS011;7630;50.306;8.566;2023-03-03T08:46:50;51.63;;;32.33;;
15061;SDS011;7630;50.306;8.566;2023-03-03T08:50:52;46.70;;;30.67;;
15061;SDS011;7630;50.306;8.566;2023-03-03T08:54:53;41.97;;;27.23;;
15061;SDS011;7630;50.306;8.566;2023-03-03T08:58:54;38.67;;;26.57;;
15061;SDS011;7630;50.306;8.566;2023-03-03T09:02:57;33.53;;;22.67;;
15061;SDS011;7630;50.306;8.566;2023-03-03T09:06:58;40.60;;;24.57;;
15061;SDS011;7630;50.306;8.566;2023-03-03T09:11:00;43.33;;;28.87;;
15061;SDS011;7630;50.306;8.566;2023-03-03T09:23:37;33.33;;;24.50;;
15061;SDS011;7630;50.306;8.566;2023-03-03T09:27:40;34.20;;;24.87;;
15061;SDS011;7630;50.306;8.566;2023-03-03T09:31:49;33.67;;;24.50;;
15061;SDS011;7630;50.306;8.566;2023-03-03T09:36:10;32.87;;;24.97;;
15061;SDS011;7630;50.306;8.566;2023-03-03T09:41:15;29.73;;;23.10;;
15061;SDS011;7630;50.306;8.566;2023-03-03T09:49:03;31.97;;;23.33;;
15061;SDS011;7630;50.306;8.566;2023-03-03T09:57:57;27.07;;;21.93;;
15061;SDS011;7630;50.306;8.566;2023-03-03T10:10:44;24.13;;;20.13;;
15061;SDS011;7630;50.306;8.566;2023-03-03T10:58:36;24.93;;;19.67;;
15061;SDS011;7630;50.306;8.566;2023-03-03T11:07:21;27.60;;;21.63;;
15061;SDS011;7630;50.306;8.566;2023-03-03T11:20:27;24.43;;;19.87;;
15061;SDS011;7630;50.306;8.566;2023-03-03T11:24:37;24.27;;;19.27;;
15061;SDS011;7630;50.306;8.566;2023-03-03T11:32:59;25.20;;;19.50;;
15061;SDS011;7630;50.306;8.566;2023-03-03T11:41:41;22.50;;;19.37;;
15061;SDS011;7630;50.306;8.566;2023-03-03T11:45:46;19.10;;;15.83;;
15061;SDS011;7630;50.306;8.566;2023-03-03T11:58:27;21.27;;;17.93;;
15061;SDS011;7630;50.306;8.566;2023-03-03T12:02:54;20.70;;;16.23;;
15061;SDS011;7630;50.306;8.566;2023-03-03T12:11:24;20.40;;;17.80;;
15061;SDS011;7630;50.306;8.566;2023-03-03T12:15:46;21.27;;;16.57;;
15061;SDS011;7630;50.306;8.566;2023-03-03T12:28:54;18.60;;;15.00;;
15061;SDS011;7630;50.306;8.566;2023-03-03T12:33:03;17.87;;;14.93;;
15061;SDS011;7630;50.306;8.566;2023-03-03T12:50:22;14.87;;;11.77;;
15061;SDS011;7630;50.306;8.566;2023-03-03T12:58:59;14.90;;;12.80;;
15061;SDS011;7630;50.306;8.566;2023-03-03T13:07:40;12.00;;;10.70;;
15061;SDS011;7630;50.306;8.566;2023-03-03T13:16:12;12.53;;;10.90;;
15061;SDS011;7630;50.306;8.566;2023-03-03T13:24:54;12.90;;;10.00;;
15061;SDS011;7630;50.306;8.566;2023-03-03T13:29:02;13.07;;;10.40;;
15061;SDS011;7630;50.306;8.566;2023-03-03T13:41:48;10.03;;;8.63;;
15061;SDS011;7630;50.306;8.566;2023-03-03T13:46:03;12.87;;;9.10;;
15061;SDS011;7630;50.306;8.566;2023-03-03T13:50:18;10.77;;;9.53;;
15061;SDS011;7630;50.306;8.566;2023-03-03T13:58:52;10.23;;;9.13;;
15061;SDS011;7630;50.306;8.566;2023-03-03T14:03:07;10.77;;;9.67;;
15061;SDS011;7630;50.306;8.566;2023-03-03T14:07:17;11.53;;;9.10;;
15061;SDS011;7630;50.306;8.566;2023-03-03T14:11:24;10.30;;;9.30;;
15061;SDS011;7630;50.306;8.566;2023-03-03T14:15:47;10.50;;;9.13;;
15061;SDS011;7630;50.306;8.566;2023-03-03T14:24:30;9.93;;;8.57;;
15061;SDS011;7630;50.306;8.566;2023-03-03T14:28:43;9.23;;;8.30;;
15061;SDS011;7630;50.306;8.566;2023-03-03T14:41:34;9.17;;;8.23;;
15061;SDS011;7630;50.306;8.566;2023-03-03T14:45:40;11.17;;;7.80;;
15061;SDS011;7630;50.306;8.566;2023-03-03T14:49:41;9.70;;;8.03;;
15061;SDS011;7630;50.306;8.566;2023-03-03T14:53:43;9.40;;;7.73;;
15061;SDS011;7630;50.306;8.566;2023-03-03T14:57:47;8.60;;;7.53;;
15061;SDS011;7630;50.306;8.566;2023-03-03T15:02:02;9.47;;;7.77;;
15061;SDS011;7630;50.306;8.566;2023-03-03T15:05:58;7.30;;;6.43;;
15061;SDS011;7630;50.306;8.566;2023-03-03T15:09:59;7.37;;;6.47;;
15061;SDS011;7630;50.306;8.566;2023-03-03T15:14:13;7.17;;;6.43;;
15061;SDS011;7630;50.306;8.566;2023-03-03T15:18:16;20.80;;;6.97;;
15061;SDS011;7630;50.306;8.566;2023-03-03T15:22:26;7.87;;;7.03;;
15061;SDS011;7630;50.306;8.566;2023-03-03T15:31:02;8.07;;;6.60;;
15061;SDS011;7630;50.306;8.566;2023-03-03T15:39:45;7.23;;;6.47;;
15061;SDS011;7630;50.306;8.566;2023-03-03T16:25:30;8.03;;;7.07;;
15061;SDS011;7630;50.306;8.566;2023-03-03T16:34:11;8.53;;;7.50;;
15061;SDS011;7630;50.306;8.566;2023-03-03T16:38:41;9.37;;;7.10;;
15061;SDS011;7630;50.306;8.566;2023-03-03T16:42:36;8.63;;;7.53;;
15061;SDS011;7630;50.306;8.566;2023-03-03T16:46:41;7.60;;;6.10;;
15061;SDS011;7630;50.306;8.566;2023-03-03T16:55:27;8.93;;;7.70;;
15061;SDS011;7630;50.306;8.566;2023-03-03T17:03:58;8.80;;;7.47;;
15061;SDS011;7630;50.306;8.566;2023-03-03T17:16:54;12.43;;;8.57;;
15061;SDS011;7630;50.306;8.566;2023-03-03T17:20:57;13.57;;;9.33;;
15061;SDS011;7630;50.306;8.566;2023-03-03T17:33:58;13.13;;;9.43;;
15061;SDS011;7630;50.306;8.566;2023-03-03T17:47:06;10.70;;;9.57;;
15061;SDS011;7630;50.306;8.566;2023-03-03T18:00:00;13.97;;;10.33;;
15061;SDS011;7630;50.306;8.566;2023-03-03T18:21:56;12.47;;;11.13;;
15061;SDS011;7630;50.306;8.566;2023-03-03T18:26:02;12.07;;;10.80;;
15061;SDS011;7630;50.306;8.566;2023-03-03T18:38:24;14.83;;;13.17;;
15061;SDS011;7630;50.306;8.566;2023-03-03T18:42:32;11.13;;;9.93;;
15061;SDS011;7630;50.306;8.566;2023-03-03T18:50:46;12.00;;;10.27;;
15061;SDS011;7630;50.306;8.566;2023-03-03T19:08:02;14.13;;;12.53;;
15061;SDS011;7630;50.306;8.566;2023-03-03T19:12:08;16.57;;;12.07;;
15061;SDS011;7630;50.306;8.566;2023-03-03T19:20:36;15.03;;;13.53;;
15061;SDS011;7630;50.306;8.566;2023-03-03T19:24:39;15.93;;;11.37;;
15061;SDS011;7630;50.306;8.566;2023-03-03T19:28:42;11.60;;;10.37;;
15061;SDS011;7630;50.306;8.566;2023-03-03T19:32:47;16.27;;;12.27;;
15061;SDS011;7630;50.306;8.566;2023-03-03T19:37:19;17.63;;;12.07;;
15061;SDS011;7630;50.306;8.566;2023-03-03T19:59:45;25.93;;;20.73;;
15061;SDS011;7630;50.306;8.566;2023-03-03T20:08:27;19.90;;;13.77;;
15061;SDS011;7630;50.306;8.566;2023-03-03T20:17:28;19.10;;;13.77;;
15061;SDS011;7630;50.306;8.566;2023-03-03T20:21:33;19.23;;;14.43;;
15061;SDS011;7630;50.306;8.566;2023-03-03T20:25:42;17.83;;;12.40;;
15061;SDS011;7630;50.306;8.566;2023-03-03T20:51:04;17.13;;;13.30;;
15061;SDS011;7630;50.306;8.566;2023-03-03T20:59:38;17.33;;;13.73;;
15061;SDS011;7630;50.306;8.566;2023-03-03T21:03:43;18.13;;;14.17;;
15061;SDS011;7630;50.306;8.566;2023-03-03T21:07:52;19.20;;;14.20;;
15061;SDS011;7630;50.306;8.566;2023-03-03T21:16:30;108.67;;;74.60;;
15061;SDS011;7630;50.306;8.566;2023-03-03T21:20:32;78.90;;;55.17;;
15061;SDS011;7630;50.306;8.566;2023-03-03T21:28:58;24.00;;;16.33;;
15061;SDS011;7630;50.306;8.566;2023-03-03T21:33:02;22.73;;;15.97;;
15061;SDS011;7630;50.306;8.566;2023-03-03T21:37:04;20.43;;;14.63;;
15061;SDS011;7630;50.306;8.566;2023-03-03T21:41:10;22.45;;;19.32;;
15061;SDS011;7630;50.306;8.566;2023-03-03T21:45:13;24.30;;;17.20;;
15061;SDS011;7630;50.306;8.566;2023-03-03T21:49:16;27.63;;;17.73;;
15061;SDS011;7630;50.306;8.566;2023-03-03T21:53:17;26.77;;;20.07;;
15061;SDS011;7630;50.306;8.566;2023-03-03T21:57:20;30.97;;;20.90;;
15061;SDS011;7630;50.306;8.566;2023-03-03T22:01:21;30.33;;;22.37;;
15061;SDS011;7630;50.306;8.566;2023-03-03T22:05:23;34.37;;;24.33;;
15061;SDS011;7630;50.306;8.566;2023-03-03T22:09:24;34.77;;;24.47;;
15061;SDS011;7630;50.306;8.566;2023-03-03T22:13:26;38.47;;;24.90;;
15061;SDS011;7630;50.306;8.566;2023-03-03T22:17:27;41.17;;;27.80;;
15061;SDS011;7630;50.306;8.566;2023-03-03T22:21:28;43.93;;;28.53;;
15061;SDS011;7630;50.306;8.566;2023-03-03T22:25:30;43.47;;;26.47;;
15061;SDS011;7630;50.306;8.566;2023-03-03T22:29:31;43.67;;;28.50;;
15061;SDS011;7630;50.306;8.566;2023-03-03T22:33:34;41.50;;;30.00;;
15061;SDS011;7630;50.306;8.566;2023-03-03T22:37:35;54.47;;;33.03;;
15061;SDS011;7630;50.306;8.566;2023-03-03T22:41:36;51.27;;;32.33;;
15061;SDS011;7630;50.306;8.566;2023-03-03T22:45:37;54.33;;;34.20;;
15061;SDS011;7630;50.306;8.566;2023-03-03T22:49:38;50.73;;;34.17;;
15061;SDS011;7630;50.306;8.566;2023-03-03T22:53:39;58.80;;;37.47;;
15061;SDS011;7630;50.306;8.566;2023-03-03T22:57:40;61.97;;;38.10;;
15061;SDS011;7630;50.306;8.566;2023-03-03T23:01:41;61.67;;;38.70;;
15061;SDS011;7630;50.306;8.566;2023-03-03T23:05:42;58.17;;;39.53;;
15061;SDS011;7630;50.306;8.566;2023-03-03T23:09:44;75.33;;;39.73;;
15061;SDS011;7630;50.306;8.566;2023-03-03T23:13:45;64.53;;;39.20;;
15061;SDS011;7630;50.306;8.566;2023-03-03T23:17:46;73.83;;;37.63;;
15061;SDS011;7630;50.306;8.566;2023-03-03T23:21:47;75.60;;;39.93;;
15061;SDS011;7630;50.306;8.566;2023-03-03T23:25:48;81.47;;;43.10;;
15061;SDS011;7630;50.306;8.566;2023-03-03T23:29:50;65.53;;;41.00;;
15061;SDS011;7630;50.306;8.566;2023-03-03T23:33:52;82.30;;;43.07;;
15061;SDS011;7630;50.306;8.566;2023-03-03T23:37:53;68.87;;;39.77;;
15061;SDS011;7630;50.306;8.566;2023-03-03T23:41:54;72.53;;;39.27;;
15061;SDS011;7630;50.306;8.566;2023-03-03T23:45:55;81.90;;;41.70;;
15061;SDS011;7630;50.306;8.566;2023-03-03T23:49:56;70.67;;;40.90;;
15061;SDS011;7630;50.306;8.566;2023-03-03T23:53:57;79.13;;;42.00;;
15061;SDS011;7630;50.306;8.566;2023-03-03T23:57:58;72.33;;;38.43;;
